sensor_id;sensor_type;location;lat;lon;timestamp;temperature;humidity
37240;DHT22;23130;48.760;9.178;2022-10-17T00:02:00;13.60;99.90
37240;DHT22;23130;48.760;9.178;2022-10-17T00:04:25;13.70;99.90
37240;DHT22;23130;48.760;9.178;2022-10-17T00:06:51;13.80;99.90
37240;DHT22;23130;48.760;9.178;2022-10-17T00:09:16;13.80;99.90
37240;DHT22;23130;48.760;9.178;2022-10-17T00:11:42;13.90;99.90
37240;DHT22;23130;48.760;9.178;2022-10-17T00:14:07;13.90;99.90
37240;DHT22;23130;48.760;9.178;2022-10-17T00:16:34;14.00;99.90
37240;DHT22;23130;48.760;9.178;2022-10-17T00:19:04;13.90;99.90
37240;DHT22;23130;48.760;9.178;2022-10-17T00:21:30;13.90;99.90
37240;DHT22;23130;48.760;9.178;2022-10-17T00:23:56;13.80;99.90
37240;DHT22;23130;48.760;9.178;2022-10-17T00:26:22;13.70;99.90
37240;DHT22;23130;48.760;9.178;2022-10-17T00:28:49;13.70;99.90
37240;DHT22;23130;48.760;9.178;2022-10-17T00:31:16;13.60;99.90
37240;DHT22;23130;48.760;9.178;2022-10-17T00:33:41;13.50;99.90
37240;DHT22;23130;48.760;9.178;2022-10-17T00:36:11;13.40;99.90
37240;DHT22;23130;48.760;9.178;2022-10-17T00:38:39;13.30;99.90
37240;DHT22;23130;48.760;9.178;2022-10-17T00:41:06;13.20;99.90
37240;DHT22;23130;48.760;9.178;2022-10-17T00:43:49;13.20;99.90
37240;DHT22;23130;48.760;9.178;2022-10-17T00:46:15;13.20;99.90
37240;DHT22;23130;48.760;9.178;2022-10-17T00:48:41;13.10;99.90
37240;DHT22;23130;48.760;9.178;2022-10-17T00:51:07;13.10;99.90
37240;DHT22;23130;48.760;9.178;2022-10-17T00:53:34;13.10;99.90
37240;DHT22;23130;48.760;9.178;2022-10-17T00:56:01;13.20;99.90
37240;DHT22;23130;48.760;9.178;2022-10-17T00:58:26;13.20;99.90
37240;DHT22;23130;48.760;9.178;2022-10-17T01:00:52;13.20;99.90
37240;DHT22;23130;48.760;9.178;2022-10-17T01:03:18;13.20;99.90
37240;DHT22;23130;48.760;9.178;2022-10-17T01:05:43;13.30;99.90
37240;DHT22;23130;48.760;9.178;2022-10-17T01:08:09;13.30;99.90
37240;DHT22;23130;48.760;9.178;2022-10-17T01:16:07;13.30;99.90
37240;DHT22;23130;48.760;9.178;2022-10-17T01:19:25;13.40;99.90
37240;DHT22;23130;48.760;9.178;2022-10-17T01:22:08;13.30;99.90
37240;DHT22;23130;48.760;9.178;2022-10-17T01:25:04;13.40;99.90
37240;DHT22;23130;48.760;9.178;2022-10-17T01:27:59;13.40;99.90
37240;DHT22;23130;48.760;9.178;2022-10-17T01:33:26;13.40;99.90
37240;DHT22;23130;48.760;9.178;2022-10-17T01:38:47;13.40;99.90
37240;DHT22;23130;48.760;9.178;2022-10-17T01:42:09;13.40;99.90
37240;DHT22;23130;48.760;9.178;2022-10-17T01:44:17;13.40;99.90
37240;DHT22;23130;48.760;9.178;2022-10-17T01:46:48;13.40;99.90
37240;DHT22;23130;48.760;9.178;2022-10-17T01:49:16;13.50;99.90
37240;DHT22;23130;48.760;9.178;2022-10-17T01:51:48;13.40;99.90
37240;DHT22;23130;48.760;9.178;2022-10-17T01:54:28;13.40;99.90
37240;DHT22;23130;48.760;9.178;2022-10-17T01:56:58;13.40;99.90
37240;DHT22;23130;48.760;9.178;2022-10-17T01:59:30;13.30;99.90
37240;DHT22;23130;48.760;9.178;2022-10-17T02:01:59;13.30;99.90
37240;DHT22;23130;48.760;9.178;2022-10-17T02:04:26;13.20;99.90
37240;DHT22;23130;48.760;9.178;2022-10-17T02:06:52;13.20;99.90
37240;DHT22;23130;48.760;9.178;2022-10-17T02:09:22;13.20;99.90
37240;DHT22;23130;48.760;9.178;2022-10-17T02:11:56;13.20;99.90
37240;DHT22;23130;48.760;9.178;2022-10-17T02:17:23;13.10;99.90
37240;DHT22;23130;48.760;9.178;2022-10-17T02:23:10;13.20;99.90
37240;DHT22;23130;48.760;9.178;2022-10-17T02:25:34;13.20;99.90
37240;DHT22;23130;48.760;9.178;2022-10-17T02:28:17;13.20;99.90
37240;DHT22;23130;48.760;9.178;2022-10-17T02:30:52;13.10;99.90
37240;DHT22;23130;48.760;9.178;2022-10-17T02:33:49;13.00;99.90
37240;DHT22;23130;48.760;9.178;2022-10-17T02:36:24;13.00;99.90
37240;DHT22;23130;48.760;9.178;2022-10-17T02:38:51;13.10;99.90
37240;DHT22;23130;48.760;9.178;2022-10-17T02:41:19;13.10;99.90
37240;DHT22;23130;48.760;9.178;2022-10-17T02:43:47;13.20;99.90
37240;DHT22;23130;48.760;9.178;2022-10-17T02:46:17;13.10;99.90
37240;DHT22;23130;48.760;9.178;2022-10-17T02:51:25;13.20;99.90
37240;DHT22;23130;48.760;9.178;2022-10-17T02:56:59;13.30;99.90
37240;DHT22;23130;48.760;9.178;2022-10-17T02:59:28;13.40;99.90
37240;DHT22;23130;48.760;9.178;2022-10-17T03:01:55;13.50;99.90
37240;DHT22;23130;48.760;9.178;2022-10-17T03:04:20;13.60;99.90
37240;DHT22;23130;48.760;9.178;2022-10-17T03:06:47;13.60;99.90
37240;DHT22;23130;48.760;9.178;2022-10-17T03:09:13;13.70;99.90
37240;DHT22;23130;48.760;9.178;2022-10-17T03:11:39;13.60;99.90
37240;DHT22;23130;48.760;9.178;2022-10-17T03:14:04;13.60;99.90
37240;DHT22;23130;48.760;9.178;2022-10-17T03:16:30;13.60;99.90
37240;DHT22;23130;48.760;9.178;2022-10-17T03:18:56;13.50;99.90
37240;DHT22;23130;48.760;9.178;2022-10-17T03:21:21;13.50;99.90
37240;DHT22;23130;48.760;9.178;2022-10-17T03:23:47;13.40;99.90
37240;DHT22;23130;48.760;9.178;2022-10-17T03:26:12;13.30;99.90
37240;DHT22;23130;48.760;9.178;2022-10-17T03:28:38;13.20;99.90
37240;DHT22;23130;48.760;9.178;2022-10-17T03:31:09;13.20;99.90
37240;DHT22;23130;48.760;9.178;2022-10-17T03:33:35;13.20;99.90
37240;DHT22;23130;48.760;9.178;2022-10-17T03:36:10;13.20;99.90
37240;DHT22;23130;48.760;9.178;2022-10-17T03:38:36;13.10;99.90
37240;DHT22;23130;48.760;9.178;2022-10-17T03:41:03;13.10;99.90
37240;DHT22;23130;48.760;9.178;2022-10-17T03:43:29;13.10;99.90
37240;DHT22;23130;48.760;9.178;2022-10-17T03:45:56;13.20;99.90
37240;DHT22;23130;48.760;9.178;2022-10-17T03:48:23;13.20;99.90
37240;DHT22;23130;48.760;9.178;2022-10-17T03:50:49;13.30;99.90
37240;DHT22;23130;48.760;9.178;2022-10-17T03:53:14;13.30;99.90
37240;DHT22;23130;48.760;9.178;2022-10-17T03:55:40;13.20;99.90
37240;DHT22;23130;48.760;9.178;2022-10-17T03:58:06;13.20;99.90
37240;DHT22;23130;48.760;9.178;2022-10-17T04:00:31;13.10;99.90
37240;DHT22;23130;48.760;9.178;2022-10-17T04:02:57;13.00;99.90
37240;DHT22;23130;48.760;9.178;2022-10-17T04:05:23;13.00;99.90
37240;DHT22;23130;48.760;9.178;2022-10-17T04:07:48;12.90;99.90
37240;DHT22;23130;48.760;9.178;2022-10-17T04:10:14;12.90;99.90
37240;DHT22;23130;48.760;9.178;2022-10-17T04:12:40;12.90;99.90
37240;DHT22;23130;48.760;9.178;2022-10-17T04:15:06;12.90;99.90
37240;DHT22;23130;48.760;9.178;2022-10-17T04:17:32;12.80;99.90
37240;DHT22;23130;48.760;9.178;2022-10-17T04:19:57;12.80;99.90
37240;DHT22;23130;48.760;9.178;2022-10-17T04:22:23;12.80;99.90
37240;DHT22;23130;48.760;9.178;2022-10-17T04:24:48;12.70;99.90
37240;DHT22;23130;48.760;9.178;2022-10-17T04:27:14;12.70;99.90
37240;DHT22;23130;48.760;9.178;2022-10-17T04:29:39;12.70;99.90
37240;DHT22;23130;48.760;9.178;2022-10-17T04:32:05;12.70;99.90
37240;DHT22;23130;48.760;9.178;2022-10-17T04:34:31;12.70;99.90
37240;DHT22;23130;48.760;9.178;2022-10-17T04:36:56;12.70;99.90
37240;DHT22;23130;48.760;9.178;2022-10-17T04:39:22;12.70;99.90
37240;DHT22;23130;48.760;9.178;2022-10-17T04:41:47;12.70;99.90
37240;DHT22;23130;48.760;9.178;2022-10-17T04:44:13;12.70;99.90
37240;DHT22;23130;48.760;9.178;2022-10-17T04:46:38;12.70;99.90
37240;DHT22;23130;48.760;9.178;2022-10-17T04:49:04;12.80;99.90
37240;DHT22;23130;48.760;9.178;2022-10-17T04:51:29;12.80;99.90
37240;DHT22;23130;48.760;9.178;2022-10-17T04:53:55;12.80;99.90
37240;DHT22;23130;48.760;9.178;2022-10-17T04:56:22;12.80;99.90
37240;DHT22;23130;48.760;9.178;2022-10-17T04:58:48;12.70;99.90
37240;DHT22;23130;48.760;9.178;2022-10-17T05:01:17;12.60;99.90
37240;DHT22;23130;48.760;9.178;2022-10-17T05:03:43;12.60;99.90
37240;DHT22;23130;48.760;9.178;2022-10-17T05:06:18;12.60;99.90
37240;DHT22;23130;48.760;9.178;2022-10-17T05:08:45;12.70;99.90
37240;DHT22;23130;48.760;9.178;2022-10-17T05:11:17;12.80;99.90
37240;DHT22;23130;48.760;9.178;2022-10-17T05:13:43;12.90;99.90
37240;DHT22;23130;48.760;9.178;2022-10-17T05:16:09;13.00;99.90
37240;DHT22;23130;48.760;9.178;2022-10-17T05:18:35;13.00;99.90
37240;DHT22;23130;48.760;9.178;2022-10-17T05:21:02;13.10;99.90
37240;DHT22;23130;48.760;9.178;2022-10-17T05:23:29;13.10;99.90
37240;DHT22;23130;48.760;9.178;2022-10-17T05:25:55;13.20;99.90
37240;DHT22;23130;48.760;9.178;2022-10-17T05:28:21;13.50;99.90
37240;DHT22;23130;48.760;9.178;2022-10-17T05:30:47;13.50;99.90
37240;DHT22;23130;48.760;9.178;2022-10-17T05:33:13;13.50;99.90
37240;DHT22;23130;48.760;9.178;2022-10-17T05:35:39;13.50;99.90
37240;DHT22;23130;48.760;9.178;2022-10-17T05:38:04;13.50;99.90
37240;DHT22;23130;48.760;9.178;2022-10-17T05:40:30;13.50;99.90
37240;DHT22;23130;48.760;9.178;2022-10-17T05:42:55;13.50;99.90
37240;DHT22;23130;48.760;9.178;2022-10-17T05:45:21;13.50;99.90
37240;DHT22;23130;48.760;9.178;2022-10-17T05:47:47;13.40;99.90
37240;DHT22;23130;48.760;9.178;2022-10-17T05:50:13;13.40;99.90
37240;DHT22;23130;48.760;9.178;2022-10-17T05:52:38;13.40;99.90
37240;DHT22;23130;48.760;9.178;2022-10-17T05:55:05;13.40;99.90
37240;DHT22;23130;48.760;9.178;2022-10-17T05:57:31;13.40;99.90
37240;DHT22;23130;48.760;9.178;2022-10-17T05:59:56;13.40;99.90
37240;DHT22;23130;48.760;9.178;2022-10-17T06:02:22;13.40;99.90
37240;DHT22;23130;48.760;9.178;2022-10-17T06:04:47;13.30;99.90
37240;DHT22;23130;48.760;9.178;2022-10-17T06:07:15;13.30;99.90
37240;DHT22;23130;48.760;9.178;2022-10-17T06:09:41;13.30;99.90
37240;DHT22;23130;48.760;9.178;2022-10-17T06:12:07;13.30;99.90
37240;DHT22;23130;48.760;9.178;2022-10-17T06:14:32;13.20;99.90
37240;DHT22;23130;48.760;9.178;2022-10-17T06:16:58;13.20;99.90
37240;DHT22;23130;48.760;9.178;2022-10-17T06:19:24;13.30;99.90
37240;DHT22;23130;48.760;9.178;2022-10-17T06:21:49;13.30;99.90
37240;DHT22;23130;48.760;9.178;2022-10-17T06:24:15;13.30;99.90
37240;DHT22;23130;48.760;9.178;2022-10-17T06:26:41;13.40;99.90
37240;DHT22;23130;48.760;9.178;2022-10-17T06:29:06;13.40;99.90
37240;DHT22;23130;48.760;9.178;2022-10-17T06:31:32;13.40;99.90
37240;DHT22;23130;48.760;9.178;2022-10-17T06:33:58;13.40;99.90
37240;DHT22;23130;48.760;9.178;2022-10-17T06:36:23;13.40;99.90
37240;DHT22;23130;48.760;9.178;2022-10-17T06:38:49;13.50;99.90
37240;DHT22;23130;48.760;9.178;2022-10-17T06:41:15;13.40;99.90
37240;DHT22;23130;48.760;9.178;2022-10-17T06:43:44;13.30;99.90
37240;DHT22;23130;48.760;9.178;2022-10-17T06:46:11;13.30;99.90
37240;DHT22;23130;48.760;9.178;2022-10-17T06:48:37;13.30;99.90
37240;DHT22;23130;48.760;9.178;2022-10-17T06:51:04;13.20;99.90
37240;DHT22;23130;48.760;9.178;2022-10-17T06:53:33;13.10;99.90
37240;DHT22;23130;48.760;9.178;2022-10-17T06:55:59;13.10;99.90
37240;DHT22;23130;48.760;9.178;2022-10-17T06:58:31;13.10;99.90
37240;DHT22;23130;48.760;9.178;2022-10-17T07:01:00;13.20;99.90
37240;DHT22;23130;48.760;9.178;2022-10-17T07:03:27;13.30;99.90
37240;DHT22;23130;48.760;9.178;2022-10-17T07:05:54;13.30;99.90
37240;DHT22;23130;48.760;9.178;2022-10-17T07:08:20;13.40;99.90
37240;DHT22;23130;48.760;9.178;2022-10-17T07:10:45;13.40;99.90
37240;DHT22;23130;48.760;9.178;2022-10-17T07:13:11;13.50;99.90
37240;DHT22;23130;48.760;9.178;2022-10-17T07:15:37;13.60;99.90
37240;DHT22;23130;48.760;9.178;2022-10-17T07:18:03;13.70;99.90
37240;DHT22;23130;48.760;9.178;2022-10-17T07:20:30;13.80;99.90
37240;DHT22;23130;48.760;9.178;2022-10-17T07:22:55;13.80;99.90
37240;DHT22;23130;48.760;9.178;2022-10-17T07:25:21;13.90;99.90
37240;DHT22;23130;48.760;9.178;2022-10-17T07:27:50;14.00;99.90
37240;DHT22;23130;48.760;9.178;2022-10-17T07:30:16;14.10;99.90
37240;DHT22;23130;48.760;9.178;2022-10-17T07:32:42;14.20;99.90
37240;DHT22;23130;48.760;9.178;2022-10-17T07:35:09;14.40;99.90
37240;DHT22;23130;48.760;9.178;2022-10-17T07:37:35;14.50;99.90
37240;DHT22;23130;48.760;9.178;2022-10-17T07:40:01;14.70;99.90
37240;DHT22;23130;48.760;9.178;2022-10-17T07:42:26;14.80;99.90
37240;DHT22;23130;48.760;9.178;2022-10-17T07:44:53;15.10;99.90
37240;DHT22;23130;48.760;9.178;2022-10-17T07:47:19;15.30;99.90
37240;DHT22;23130;48.760;9.178;2022-10-17T07:49:45;15.40;99.90
37240;DHT22;23130;48.760;9.178;2022-10-17T07:52:11;15.60;99.90
37240;DHT22;23130;48.760;9.178;2022-10-17T07:54:37;15.80;99.90
37240;DHT22;23130;48.760;9.178;2022-10-17T07:57:02;15.90;99.90
37240;DHT22;23130;48.760;9.178;2022-10-17T07:59:28;16.10;99.90
37240;DHT22;23130;48.760;9.178;2022-10-17T08:01:56;16.20;99.90
37240;DHT22;23130;48.760;9.178;2022-10-17T08:04:22;16.30;99.90
37240;DHT22;23130;48.760;9.178;2022-10-17T08:06:48;16.40;99.90
37240;DHT22;23130;48.760;9.178;2022-10-17T08:09:14;16.50;99.90
37240;DHT22;23130;48.760;9.178;2022-10-17T08:11:40;16.60;99.90
37240;DHT22;23130;48.760;9.178;2022-10-17T08:14:08;16.80;99.90
37240;DHT22;23130;48.760;9.178;2022-10-17T08:16:34;16.80;99.90
37240;DHT22;23130;48.760;9.178;2022-10-17T08:19:00;16.80;99.90
37240;DHT22;23130;48.760;9.178;2022-10-17T08:21:25;17.00;99.90
37240;DHT22;23130;48.760;9.178;2022-10-17T08:23:51;17.20;99.90
37240;DHT22;23130;48.760;9.178;2022-10-17T08:26:16;17.30;99.90
37240;DHT22;23130;48.760;9.178;2022-10-17T08:28:44;17.30;99.90
37240;DHT22;23130;48.760;9.178;2022-10-17T08:31:13;17.50;99.90
37240;DHT22;23130;48.760;9.178;2022-10-17T08:33:39;17.70;99.90
37240;DHT22;23130;48.760;9.178;2022-10-17T08:36:06;17.90;99.90
37240;DHT22;23130;48.760;9.178;2022-10-17T08:38:33;18.10;99.90
37240;DHT22;23130;48.760;9.178;2022-10-17T08:41:02;18.20;99.90
37240;DHT22;23130;48.760;9.178;2022-10-17T08:43:54;18.20;99.90
37240;DHT22;23130;48.760;9.178;2022-10-17T08:46:35;18.20;99.90
37240;DHT22;23130;48.760;9.178;2022-10-17T08:49:05;18.30;99.90
37240;DHT22;23130;48.760;9.178;2022-10-17T08:51:36;18.50;99.90
37240;DHT22;23130;48.760;9.178;2022-10-17T08:54:13;18.60;99.90
37240;DHT22;23130;48.760;9.178;2022-10-17T08:56:45;18.70;99.90
37240;DHT22;23130;48.760;9.178;2022-10-17T08:59:25;18.80;99.90
37240;DHT22;23130;48.760;9.178;2022-10-17T09:02:27;18.90;99.90
37240;DHT22;23130;48.760;9.178;2022-10-17T09:05:18;19.00;99.90
37240;DHT22;23130;48.760;9.178;2022-10-17T09:11:23;19.40;99.90
37240;DHT22;23130;48.760;9.178;2022-10-17T09:14:30;19.40;99.90
37240;DHT22;23130;48.760;9.178;2022-10-17T09:17:33;19.50;99.90
37240;DHT22;23130;48.760;9.178;2022-10-17T09:22:50;19.70;99.90
37240;DHT22;23130;48.760;9.178;2022-10-17T09:25:18;19.80;99.90
37240;DHT22;23130;48.760;9.178;2022-10-17T09:32:50;20.10;99.90
37240;DHT22;23130;48.760;9.178;2022-10-17T09:35:16;20.10;99.90
37240;DHT22;23130;48.760;9.178;2022-10-17T09:37:42;20.20;99.90
37240;DHT22;23130;48.760;9.178;2022-10-17T09:40:17;20.20;99.90
37240;DHT22;23130;48.760;9.178;2022-10-17T09:42:44;20.20;99.90
37240;DHT22;23130;48.760;9.178;2022-10-17T09:45:22;20.30;99.90
37240;DHT22;23130;48.760;9.178;2022-10-17T09:48:10;20.40;99.90
37240;DHT22;23130;48.760;9.178;2022-10-17T09:50:40;20.50;99.90
37240;DHT22;23130;48.760;9.178;2022-10-17T09:53:14;20.60;99.90
37240;DHT22;23130;48.760;9.178;2022-10-17T09:55:46;20.60;99.90
37240;DHT22;23130;48.760;9.178;2022-10-17T09:58:13;20.60;99.90
37240;DHT22;23130;48.760;9.178;2022-10-17T10:00:42;20.60;99.90
37240;DHT22;23130;48.760;9.178;2022-10-17T10:05:33;20.70;99.90
37240;DHT22;23130;48.760;9.178;2022-10-17T10:08:04;20.80;99.90
37240;DHT22;23130;48.760;9.178;2022-10-17T10:10:31;20.80;99.90
37240;DHT22;23130;48.760;9.178;2022-10-17T10:13:16;20.90;99.90
37240;DHT22;23130;48.760;9.178;2022-10-17T10:15:47;21.00;99.90
37240;DHT22;23130;48.760;9.178;2022-10-17T10:21:06;21.00;99.90
37240;DHT22;23130;48.760;9.178;2022-10-17T10:23:32;21.10;99.90
37240;DHT22;23130;48.760;9.178;2022-10-17T10:26:01;21.30;99.90
37240;DHT22;23130;48.760;9.178;2022-10-17T10:28:30;21.30;99.90
37240;DHT22;23130;48.760;9.178;2022-10-17T10:30:59;21.40;99.90
37240;DHT22;23130;48.760;9.178;2022-10-17T10:33:28;21.40;99.90
37240;DHT22;23130;48.760;9.178;2022-10-17T10:36:04;21.40;99.90
37240;DHT22;23130;48.760;9.178;2022-10-17T10:38:32;21.40;99.90
37240;DHT22;23130;48.760;9.178;2022-10-17T10:41:16;21.40;99.90
37240;DHT22;23130;48.760;9.178;2022-10-17T10:43:46;21.50;99.90
37240;DHT22;23130;48.760;9.178;2022-10-17T10:48:50;21.70;99.90
37240;DHT22;23130;48.760;9.178;2022-10-17T10:51:20;21.70;99.90
37240;DHT22;23130;48.760;9.178;2022-10-17T10:56:52;21.80;99.90
37240;DHT22;23130;48.760;9.178;2022-10-17T11:08:15;21.80;99.90
37240;DHT22;23130;48.760;9.178;2022-10-17T11:10:57;21.90;99.90
37240;DHT22;23130;48.760;9.178;2022-10-17T11:13:26;21.90;99.90
37240;DHT22;23130;48.760;9.178;2022-10-17T11:18:57;22.00;99.90
37240;DHT22;23130;48.760;9.178;2022-10-17T11:21:36;22.10;99.90
37240;DHT22;23130;48.760;9.178;2022-10-17T11:24:24;22.30;99.90
37240;DHT22;23130;48.760;9.178;2022-10-17T11:27:00;22.50;99.90
37240;DHT22;23130;48.760;9.178;2022-10-17T11:29:32;22.60;99.90
37240;DHT22;23130;48.760;9.178;2022-10-17T11:32:07;22.70;99.90
37240;DHT22;23130;48.760;9.178;2022-10-17T11:34:43;22.90;99.90
37240;DHT22;23130;48.760;9.178;2022-10-17T11:37:31;23.00;99.90
37240;DHT22;23130;48.760;9.178;2022-10-17T11:40:08;23.10;99.90
37240;DHT22;23130;48.760;9.178;2022-10-17T11:45:14;23.10;99.90
37240;DHT22;23130;48.760;9.178;2022-10-17T11:50:34;23.20;99.90
37240;DHT22;23130;48.760;9.178;2022-10-17T11:53:11;23.40;99.90
37240;DHT22;23130;48.760;9.178;2022-10-17T11:55:39;23.50;99.90
37240;DHT22;23130;48.760;9.178;2022-10-17T11:58:27;23.60;99.90
37240;DHT22;23130;48.760;9.178;2022-10-17T12:00:59;23.80;99.90
37240;DHT22;23130;48.760;9.178;2022-10-17T12:12:02;23.70;99.90
37240;DHT22;23130;48.760;9.178;2022-10-17T12:17:00;23.70;99.90
37240;DHT22;23130;48.760;9.178;2022-10-17T12:19:28;23.70;99.90
37240;DHT22;23130;48.760;9.178;2022-10-17T12:22:03;23.70;99.90
37240;DHT22;23130;48.760;9.178;2022-10-17T12:24:44;23.80;99.90
37240;DHT22;23130;48.760;9.178;2022-10-17T12:27:37;23.90;99.90
37240;DHT22;23130;48.760;9.178;2022-10-17T12:32:32;23.90;99.90
37240;DHT22;23130;48.760;9.178;2022-10-17T12:34:58;23.90;99.90
37240;DHT22;23130;48.760;9.178;2022-10-17T12:37:59;23.90;99.90
37240;DHT22;23130;48.760;9.178;2022-10-17T12:45:54;23.80;99.90
37240;DHT22;23130;48.760;9.178;2022-10-17T12:56:41;23.80;99.90
37240;DHT22;23130;48.760;9.178;2022-10-17T12:59:27;23.90;99.90
37240;DHT22;23130;48.760;9.178;2022-10-17T13:01:59;24.00;99.90
37240;DHT22;23130;48.760;9.178;2022-10-17T13:04:27;23.90;99.90
37240;DHT22;23130;48.760;9.178;2022-10-17T13:06:56;23.90;99.90
37240;DHT22;23130;48.760;9.178;2022-10-17T13:09:29;23.90;99.90
37240;DHT22;23130;48.760;9.178;2022-10-17T13:11:57;24.00;99.90
37240;DHT22;23130;48.760;9.178;2022-10-17T13:14:24;24.00;99.90
37240;DHT22;23130;48.760;9.178;2022-10-17T13:16:53;24.10;99.90
37240;DHT22;23130;48.760;9.178;2022-10-17T13:19:21;24.10;99.90
37240;DHT22;23130;48.760;9.178;2022-10-17T13:21:55;24.10;99.90
37240;DHT22;23130;48.760;9.178;2022-10-17T13:24:34;24.10;99.90
37240;DHT22;23130;48.760;9.178;2022-10-17T13:27:00;24.20;99.90
37240;DHT22;23130;48.760;9.178;2022-10-17T13:29:28;24.10;99.90
37240;DHT22;23130;48.760;9.178;2022-10-17T13:31:58;24.10;99.90
37240;DHT22;23130;48.760;9.178;2022-10-17T13:34:26;23.90;99.90
37240;DHT22;23130;48.760;9.178;2022-10-17T13:37:06;23.90;99.90
37240;DHT22;23130;48.760;9.178;2022-10-17T13:39:44;23.90;99.90
37240;DHT22;23130;48.760;9.178;2022-10-17T13:42:35;23.80;99.90
37240;DHT22;23130;48.760;9.178;2022-10-17T13:45:12;23.80;99.90
37240;DHT22;23130;48.760;9.178;2022-10-17T13:47:40;23.80;99.90
37240;DHT22;23130;48.760;9.178;2022-10-17T13:50:06;23.60;99.90
37240;DHT22;23130;48.760;9.178;2022-10-17T13:52:32;23.60;99.90
37240;DHT22;23130;48.760;9.178;2022-10-17T13:55:12;23.60;99.90
37240;DHT22;23130;48.760;9.178;2022-10-17T13:57:40;23.50;99.90
37240;DHT22;23130;48.760;9.178;2022-10-17T14:00:14;23.40;99.90
37240;DHT22;23130;48.760;9.178;2022-10-17T14:02:41;23.40;99.90
37240;DHT22;23130;48.760;9.178;2022-10-17T14:07:37;23.40;99.90
37240;DHT22;23130;48.760;9.178;2022-10-17T14:10:05;23.40;99.90
37240;DHT22;23130;48.760;9.178;2022-10-17T14:12:32;23.40;99.90
37240;DHT22;23130;48.760;9.178;2022-10-17T14:14:58;23.40;99.90
37240;DHT22;23130;48.760;9.178;2022-10-17T14:17:28;23.40;99.90
37240;DHT22;23130;48.760;9.178;2022-10-17T14:19:59;23.40;99.90
37240;DHT22;23130;48.760;9.178;2022-10-17T14:22:29;23.40;99.90
37240;DHT22;23130;48.760;9.178;2022-10-17T14:24:57;23.30;99.90
37240;DHT22;23130;48.760;9.178;2022-10-17T14:27:35;23.30;99.90
37240;DHT22;23130;48.760;9.178;2022-10-17T14:32:53;23.20;99.90
37240;DHT22;23130;48.760;9.178;2022-10-17T14:35:19;23.20;99.90
37240;DHT22;23130;48.760;9.178;2022-10-17T14:37:47;23.20;99.90
37240;DHT22;23130;48.760;9.178;2022-10-17T14:40:16;23.20;99.90
37240;DHT22;23130;48.760;9.178;2022-10-17T14:42:42;23.20;99.90
37240;DHT22;23130;48.760;9.178;2022-10-17T14:45:14;23.10;99.90
37240;DHT22;23130;48.760;9.178;2022-10-17T14:47:40;23.00;99.90
37240;DHT22;23130;48.760;9.178;2022-10-17T14:50:27;22.90;99.90
37240;DHT22;23130;48.760;9.178;2022-10-17T14:53:04;22.90;99.90
37240;DHT22;23130;48.760;9.178;2022-10-17T14:55:32;22.90;99.90
37240;DHT22;23130;48.760;9.178;2022-10-17T14:57:58;22.90;99.90
37240;DHT22;23130;48.760;9.178;2022-10-17T15:00:24;22.80;99.90
37240;DHT22;23130;48.760;9.178;2022-10-17T15:02:51;22.70;99.90
37240;DHT22;23130;48.760;9.178;2022-10-17T15:05:18;22.60;99.90
37240;DHT22;23130;48.760;9.178;2022-10-17T15:07:44;22.60;99.90
37240;DHT22;23130;48.760;9.178;2022-10-17T15:10:33;22.50;99.90
37240;DHT22;23130;48.760;9.178;2022-10-17T15:12:59;22.50;99.90
37240;DHT22;23130;48.760;9.178;2022-10-17T15:15:27;22.40;99.90
37240;DHT22;23130;48.760;9.178;2022-10-17T15:17:53;22.30;99.90
37240;DHT22;23130;48.760;9.178;2022-10-17T15:20:19;22.20;99.90
37240;DHT22;23130;48.760;9.178;2022-10-17T15:22:45;22.10;99.90
37240;DHT22;23130;48.760;9.178;2022-10-17T15:25:11;22.10;99.90
37240;DHT22;23130;48.760;9.178;2022-10-17T15:27:36;22.10;99.90
37240;DHT22;23130;48.760;9.178;2022-10-17T15:30:02;22.00;99.90
37240;DHT22;23130;48.760;9.178;2022-10-17T15:32:28;22.00;99.90
37240;DHT22;23130;48.760;9.178;2022-10-17T15:34:53;21.90;99.90
37240;DHT22;23130;48.760;9.178;2022-10-17T15:37:23;21.90;99.90
37240;DHT22;23130;48.760;9.178;2022-10-17T15:39:52;21.80;99.90
37240;DHT22;23130;48.760;9.178;2022-10-17T15:42:25;21.80;99.90
37240;DHT22;23130;48.760;9.178;2022-10-17T15:44:51;21.70;99.90
37240;DHT22;23130;48.760;9.178;2022-10-17T15:47:28;21.60;99.90
37240;DHT22;23130;48.760;9.178;2022-10-17T15:49:55;21.50;99.90
37240;DHT22;23130;48.760;9.178;2022-10-17T15:52:22;21.50;99.90
37240;DHT22;23130;48.760;9.178;2022-10-17T15:54:48;21.40;99.90
37240;DHT22;23130;48.760;9.178;2022-10-17T15:57:35;21.30;99.90
37240;DHT22;23130;48.760;9.178;2022-10-17T16:00:04;21.20;99.90
37240;DHT22;23130;48.760;9.178;2022-10-17T16:02:30;21.10;99.90
37240;DHT22;23130;48.760;9.178;2022-10-17T16:04:58;20.90;99.90
37240;DHT22;23130;48.760;9.178;2022-10-17T16:07:23;20.80;99.90
37240;DHT22;23130;48.760;9.178;2022-10-17T16:09:49;20.60;99.90
37240;DHT22;23130;48.760;9.178;2022-10-17T16:12:17;20.50;99.90
37240;DHT22;23130;48.760;9.178;2022-10-17T16:14:45;20.40;99.90
37240;DHT22;23130;48.760;9.178;2022-10-17T16:17:15;20.20;99.90
37240;DHT22;23130;48.760;9.178;2022-10-17T16:19:41;20.10;99.90
37240;DHT22;23130;48.760;9.178;2022-10-17T16:22:20;20.00;99.90
37240;DHT22;23130;48.760;9.178;2022-10-17T16:24:48;19.90;99.90
37240;DHT22;23130;48.760;9.178;2022-10-17T16:27:13;19.70;99.90
37240;DHT22;23130;48.760;9.178;2022-10-17T16:29:39;19.60;99.90
37240;DHT22;23130;48.760;9.178;2022-10-17T16:32:05;19.50;99.90
37240;DHT22;23130;48.760;9.178;2022-10-17T16:34:30;19.30;99.90
37240;DHT22;23130;48.760;9.178;2022-10-17T16:36:56;19.20;99.90
37240;DHT22;23130;48.760;9.178;2022-10-17T16:39:22;19.10;99.90
37240;DHT22;23130;48.760;9.178;2022-10-17T16:41:47;19.00;99.90
37240;DHT22;23130;48.760;9.178;2022-10-17T16:44:13;19.00;99.90
37240;DHT22;23130;48.760;9.178;2022-10-17T16:46:39;18.90;99.90
37240;DHT22;23130;48.760;9.178;2022-10-17T16:49:04;19.00;99.90
37240;DHT22;23130;48.760;9.178;2022-10-17T16:51:30;19.10;99.90
37240;DHT22;23130;48.760;9.178;2022-10-17T16:53:58;19.10;99.90
37240;DHT22;23130;48.760;9.178;2022-10-17T16:56:25;19.20;99.90
37240;DHT22;23130;48.760;9.178;2022-10-17T16:58:54;19.20;99.90
37240;DHT22;23130;48.760;9.178;2022-10-17T17:01:22;19.30;99.90
37240;DHT22;23130;48.760;9.178;2022-10-17T17:03:48;19.30;99.90
37240;DHT22;23130;48.760;9.178;2022-10-17T17:06:25;19.20;99.90
37240;DHT22;23130;48.760;9.178;2022-10-17T17:08:52;19.10;99.90
37240;DHT22;23130;48.760;9.178;2022-10-17T17:11:20;19.00;99.90
37240;DHT22;23130;48.760;9.178;2022-10-17T17:13:46;19.00;99.90
37240;DHT22;23130;48.760;9.178;2022-10-17T17:16:19;19.00;99.90
37240;DHT22;23130;48.760;9.178;2022-10-17T17:18:52;18.90;99.90
37240;DHT22;23130;48.760;9.178;2022-10-17T17:21:18;18.80;99.90